sensor_id;sensor_type;location;lat;lon;timestamp;P1;durP1;ratioP1;P2;durP2;ratioP2
35243;SDS011;37916;52.160;21.066;2022-09-13T00:04:45;13.38;;;10.75;;
35243;SDS011;37916;52.160;21.066;2022-09-13T00:14:46;16.60;;;10.38;;
35243;SDS011;37916;52.160;21.066;2022-09-13T00:24:47;14.60;;;10.38;;
35243;SDS011;37916;52.160;21.066;2022-09-13T00:34:47;16.00;;;10.90;;
35243;SDS011;37916;52.160;21.066;2022-09-13T00:55:01;15.25;;;10.68;;
35243;SDS011;37916;52.160;21.066;2022-09-13T01:05:07;17.42;;;11.55;;
35243;SDS011;37916;52.160;21.066;2022-09-13T01:15:08;18.38;;;12.35;;
35243;SDS011;37916;52.160;21.066;2022-09-13T01:56:28;16.73;;;11.43;;
35243;SDS011;37916;52.160;21.066;2022-09-13T02:06:45;20.80;;;13.13;;
35243;SDS011;37916;52.160;21.066;2022-09-13T02:17:00;19.83;;;13.95;;
35243;SDS011;37916;52.160;21.066;2022-09-13T02:27:11;17.30;;;12.50;;
35243;SDS011;37916;52.160;21.066;2022-09-13T02:37:16;19.40;;;13.32;;
35243;SDS011;37916;52.160;21.066;2022-09-13T02:47:21;18.10;;;12.63;;
35243;SDS011;37916;52.160;21.066;2022-09-13T02:57:35;17.70;;;13.10;;
35243;SDS011;37916;52.160;21.066;2022-09-13T03:07:41;17.45;;;11.60;;
35243;SDS011;37916;52.160;21.066;2022-09-13T03:37:51;13.18;;;9.43;;
35243;SDS011;37916;52.160;21.066;2022-09-13T03:47:58;14.38;;;11.02;;
35243;SDS011;37916;52.160;21.066;2022-09-13T03:57:59;12.00;;;8.48;;
35243;SDS011;37916;52.160;21.066;2022-09-13T04:08:00;11.20;;;8.35;;
35243;SDS011;37916;52.160;21.066;2022-09-13T04:28:05;14.00;;;9.20;;
35243;SDS011;37916;52.160;21.066;2022-09-13T04:38:06;17.98;;;8.77;;
35243;SDS011;37916;52.160;21.066;2022-09-13T04:48:13;19.55;;;10.90;;
35243;SDS011;37916;52.160;21.066;2022-09-13T04:58:17;14.38;;;9.02;;
35243;SDS011;37916;52.160;21.066;2022-09-13T05:08:17;16.20;;;11.18;;
35243;SDS011;37916;52.160;21.066;2022-09-13T05:18:23;19.30;;;11.52;;
35243;SDS011;37916;52.160;21.066;2022-09-13T05:28:29;16.42;;;8.70;;
35243;SDS011;37916;52.160;21.066;2022-09-13T05:38:32;12.07;;;8.80;;
35243;SDS011;37916;52.160;21.066;2022-09-13T05:48:34;11.88;;;8.82;;
35243;SDS011;37916;52.160;21.066;2022-09-13T05:58:39;10.00;;;7.80;;
35243;SDS011;37916;52.160;21.066;2022-09-13T06:08:46;14.30;;;7.28;;
35243;SDS011;37916;52.160;21.066;2022-09-13T06:18:47;11.93;;;7.67;;
35243;SDS011;37916;52.160;21.066;2022-09-13T06:28:48;10.15;;;7.88;;
35243;SDS011;37916;52.160;21.066;2022-09-13T06:49:00;11.68;;;7.00;;
35243;SDS011;37916;52.160;21.066;2022-09-13T06:59:04;13.30;;;7.37;;
35243;SDS011;37916;52.160;21.066;2022-09-13T07:09:07;9.70;;;7.13;;
35243;SDS011;37916;52.160;21.066;2022-09-13T07:19:13;9.50;;;7.45;;
35243;SDS011;37916;52.160;21.066;2022-09-13T07:29:32;12.07;;;8.48;;
35243;SDS011;37916;52.160;21.066;2022-09-13T07:39:40;11.48;;;9.52;;
35243;SDS011;37916;52.160;21.066;2022-09-13T07:49:46;12.02;;;9.85;;
35243;SDS011;37916;52.160;21.066;2022-09-13T07:59:47;11.73;;;9.45;;
35243;SDS011;37916;52.160;21.066;2022-09-13T08:09:51;10.80;;;9.38;;
35243;SDS011;37916;52.160;21.066;2022-09-13T08:19:53;11.57;;;10.38;;
35243;SDS011;37916;52.160;21.066;2022-09-13T08:29:57;11.23;;;10.02;;
35243;SDS011;37916;52.160;21.066;2022-09-13T08:40:00;11.93;;;9.82;;
35243;SDS011;37916;52.160;21.066;2022-09-13T09:10:18;13.18;;;9.95;;
35243;SDS011;37916;52.160;21.066;2022-09-13T09:20:47;11.77;;;8.80;;
35243;SDS011;37916;52.160;21.066;2022-09-13T09:40:59;8.50;;;3.83;;
35243;SDS011;37916;52.160;21.066;2022-09-13T09:51:04;6.35;;;3.47;;
35243;SDS011;37916;52.160;21.066;2022-09-13T10:01:13;3.92;;;2.90;;
35243;SDS011;37916;52.160;21.066;2022-09-13T10:11:19;3.17;;;2.33;;
35243;SDS011;37916;52.160;21.066;2022-09-13T10:21:22;4.93;;;2.10;;
35243;SDS011;37916;52.160;21.066;2022-09-13T10:31:26;4.95;;;2.17;;
35243;SDS011;37916;52.160;21.066;2022-09-13T10:41:40;4.17;;;1.50;;
35243;SDS011;37916;52.160;21.066;2022-09-13T10:51:42;2.20;;;1.08;;
35243;SDS011;37916;52.160;21.066;2022-09-13T11:01:43;5.65;;;1.38;;
35243;SDS011;37916;52.160;21.066;2022-09-13T11:33:00;1.92;;;1.50;;
35243;SDS011;37916;52.160;21.066;2022-09-13T11:53:47;4.45;;;1.70;;
35243;SDS011;37916;52.160;21.066;2022-09-13T12:04:18;2.33;;;1.50;;
35243;SDS011;37916;52.160;21.066;2022-09-13T12:14:28;4.07;;;1.92;;
35243;SDS011;37916;52.160;21.066;2022-09-13T12:24:39;2.80;;;1.70;;
35243;SDS011;37916;52.160;21.066;2022-09-13T12:34:48;6.47;;;1.55;;
35243;SDS011;37916;52.160;21.066;2022-09-13T12:45:02;4.35;;;2.17;;
35243;SDS011;37916;52.160;21.066;2022-09-13T13:05:39;3.28;;;2.30;;
35243;SDS011;37916;52.160;21.066;2022-09-13T14:29:32;4.25;;;3.25;;
35243;SDS011;37916;52.160;21.066;2022-09-13T14:39:36;5.32;;;2.80;;
35243;SDS011;37916;52.160;21.066;2022-09-13T14:50:00;4.93;;;3.03;;
35243;SDS011;37916;52.160;21.066;2022-09-13T15:22:55;6.28;;;3.17;;
35243;SDS011;37916;52.160;21.066;2022-09-13T15:53:52;6.13;;;4.10;;
35243;SDS011;37916;52.160;21.066;2022-09-13T16:04:00;5.93;;;3.70;;
35243;SDS011;37916;52.160;21.066;2022-09-13T17:26:50;9.07;;;6.90;;
35243;SDS011;37916;52.160;21.066;2022-09-13T17:37:11;9.02;;;6.85;;
35243;SDS011;37916;52.160;21.066;2022-09-13T17:47:21;11.23;;;7.97;;
35243;SDS011;37916;52.160;21.066;2022-09-13T18:09:11;8.77;;;7.40;;
35243;SDS011;37916;52.160;21.066;2022-09-13T19:02:03;7.88;;;5.32;;
35243;SDS011;37916;52.160;21.066;2022-09-13T19:56:40;7.50;;;5.88;;
35243;SDS011;37916;52.160;21.066;2022-09-13T20:06:53;8.38;;;6.03;;
35243;SDS011;37916;52.160;21.066;2022-09-13T20:27:50;9.98;;;6.30;;
35243;SDS011;37916;52.160;21.066;2022-09-13T20:38:18;8.20;;;5.97;;
35243;SDS011;37916;52.160;21.066;2022-09-13T20:49:05;7.95;;;5.78;;
35243;SDS011;37916;52.160;21.066;2022-09-13T20:59:19;8.13;;;6.30;;
35243;SDS011;37916;52.160;21.066;2022-09-13T21:21:09;9.73;;;6.68;;
35243;SDS011;37916;52.160;21.066;2022-09-13T21:32:07;10.95;;;7.95;;
35243;SDS011;37916;52.160;21.066;2022-09-13T21:42:10;10.60;;;7.22;;
35243;SDS011;37916;52.160;21.066;2022-09-13T22:02:24;13.18;;;9.35;;
35243;SDS011;37916;52.160;21.066;2022-09-13T22:12:29;12.40;;;10.40;;
35243;SDS011;37916;52.160;21.066;2022-09-13T22:22:35;16.77;;;11.55;;
35243;SDS011;37916;52.160;21.066;2022-09-13T22:32:49;17.40;;;13.10;;
35243;SDS011;37916;52.160;21.066;2022-09-13T22:53:30;19.67;;;14.43;;
35243;SDS011;37916;52.160;21.066;2022-09-13T23:03:37;21.35;;;15.93;;
35243;SDS011;37916;52.160;21.066;2022-09-13T23:13:39;20.95;;;16.77;;
35243;SDS011;37916;52.160;21.066;2022-09-13T23:23:47;21.55;;;16.35;;
35243;SDS011;37916;52.160;21.066;2022-09-13T23:34:08;21.02;;;16.95;;
35243;SDS011;37916;52.160;21.066;2022-09-13T23:44:11;23.90;;;17.73;;
35243;SDS011;37916;52.160;21.066;2022-09-13T23:54:32;23.80;;;17.47;;
